Rio Novo, Brazil
Current Conditions -  °F | °C
As of 7:00 PM on Friday 19 Dec 2014 (Local Time) from SBBQ Reporting Station
Thunderstorm Thunderstorm  
Wind Chill: 68°   Ceiling: Unl
Heat Index: 68°   Visibility: 2.5mi
Dew Point: 64°   Wind: 12mph
Humidity: 88%   Direction: 200°SSW
Pressure: 30"   Gusts: NA
Location:  21.46°S, 43.13°W
Report Text: SBBQ 192100Z 20010KT 4000 +TSRA FEW035CB SCT040 20/18 Q1016
Loading
Personal Weather Stations






























Interactive Weather Map New forecast layout! Learn more

10-Day Weather Forecast

Advertisements
Track Severe Weather on mobile